sensor_id;sensor_type;location;lat;lon;timestamp;P1;durP1;ratioP1;P2;durP2;ratioP2
12038;SDS011;6080;48.818;9.526;2023-05-20T03:00:49;59.53;;;56.13;;
12038;SDS011;6080;48.818;9.526;2023-05-20T03:03:15;87.40;;;82.93;;
12038;SDS011;6080;48.818;9.526;2023-05-20T03:05:41;92.13;;;87.23;;
12038;SDS011;6080;48.818;9.526;2023-05-20T03:08:10;48.23;;;45.63;;
12038;SDS011;6080;48.818;9.526;2023-05-20T03:10:37;18.50;;;17.07;;
12038;SDS011;6080;48.818;9.526;2023-05-20T03:15:33;28.07;;;26.37;;
12038;SDS011;6080;48.818;9.526;2023-05-20T03:18:00;19.93;;;18.67;;
12038;SDS011;6080;48.818;9.526;2023-05-20T03:20:26;27.97;;;25.80;;
12038;SDS011;6080;48.818;9.526;2023-05-20T03:22:53;23.57;;;21.97;;
12038;SDS011;6080;48.818;9.526;2023-05-20T03:25:19;24.30;;;22.60;;
12038;SDS011;6080;48.818;9.526;2023-05-20T03:27:46;19.23;;;18.00;;
12038;SDS011;6080;48.818;9.526;2023-05-20T03:30:12;20.33;;;19.03;;
12038;SDS011;6080;48.818;9.526;2023-05-20T03:32:38;23.63;;;22.23;;
12038;SDS011;6080;48.818;9.526;2023-05-20T03:35:04;29.70;;;27.90;;
12038;SDS011;6080;48.818;9.526;2023-05-20T03:37:31;32.00;;;29.83;;
12038;SDS011;6080;48.818;9.526;2023-05-20T03:39:56;21.67;;;20.37;;
12038;SDS011;6080;48.818;9.526;2023-05-20T03:42:22;23.60;;;22.17;;
12038;SDS011;6080;48.818;9.526;2023-05-20T03:44:48;36.13;;;34.07;;
12038;SDS011;6080;48.818;9.526;2023-05-20T03:47:14;53.97;;;50.93;;
12038;SDS011;6080;48.818;9.526;2023-05-20T03:49:39;35.23;;;33.17;;
12038;SDS011;6080;48.818;9.526;2023-05-20T03:52:05;57.93;;;54.73;;
12038;SDS011;6080;48.818;9.526;2023-05-20T03:54:31;62.73;;;59.23;;
12038;SDS011;6080;48.818;9.526;2023-05-20T03:56:59;56.77;;;53.47;;
12038;SDS011;6080;48.818;9.526;2023-05-20T03:59:25;47.60;;;45.03;;
12038;SDS011;6080;48.818;9.526;2023-05-20T04:01:51;49.23;;;46.30;;
12038;SDS011;6080;48.818;9.526;2023-05-20T04:04:17;38.60;;;36.40;;
12038;SDS011;6080;48.818;9.526;2023-05-20T04:06:43;42.50;;;40.00;;
12038;SDS011;6080;48.818;9.526;2023-05-20T04:09:09;44.33;;;41.90;;
12038;SDS011;6080;48.818;9.526;2023-05-20T04:11:36;46.87;;;44.23;;
12038;SDS011;6080;48.818;9.526;2023-05-20T04:14:02;38.40;;;36.30;;
12038;SDS011;6080;48.818;9.526;2023-05-20T04:16:27;15.53;;;14.43;;
12038;SDS011;6080;48.818;9.526;2023-05-20T04:18:54;12.20;;;11.30;;
12038;SDS011;6080;48.818;9.526;2023-05-20T04:21:20;12.63;;;11.70;;
12038;SDS011;6080;48.818;9.526;2023-05-20T04:23:46;17.63;;;16.43;;
12038;SDS011;6080;48.818;9.526;2023-05-20T04:26:11;31.87;;;29.90;;
12038;SDS011;6080;48.818;9.526;2023-05-20T04:28:37;22.40;;;21.00;;
12038;SDS011;6080;48.818;9.526;2023-05-20T04:31:06;16.00;;;14.97;;
12038;SDS011;6080;48.818;9.526;2023-05-20T04:33:32;19.97;;;18.47;;
12038;SDS011;6080;48.818;9.526;2023-05-20T04:36:02;41.20;;;38.63;;
12038;SDS011;6080;48.818;9.526;2023-05-20T04:38:29;43.40;;;41.13;;
12038;SDS011;6080;48.818;9.526;2023-05-20T04:40:57;24.10;;;22.70;;
12038;SDS011;6080;48.818;9.526;2023-05-20T04:43:23;16.83;;;15.73;;
12038;SDS011;6080;48.818;9.526;2023-05-20T04:45:50;25.67;;;24.17;;
12038;SDS011;6080;48.818;9.526;2023-05-20T04:48:17;33.13;;;31.23;;
12038;SDS011;6080;48.818;9.526;2023-05-20T04:50:43;31.83;;;30.03;;
12038;SDS011;6080;48.818;9.526;2023-05-20T04:53:10;34.67;;;32.77;;
12038;SDS011;6080;48.818;9.526;2023-05-20T04:55:36;32.17;;;30.37;;
12038;SDS011;6080;48.818;9.526;2023-05-20T04:58:03;22.50;;;21.30;;
12038;SDS011;6080;48.818;9.526;2023-05-20T05:00:28;42.83;;;40.63;;
12038;SDS011;6080;48.818;9.526;2023-05-20T05:02:54;133.47;;;126.37;;
12038;SDS011;6080;48.818;9.526;2023-05-20T05:05:20;133.40;;;126.27;;
12038;SDS011;6080;48.818;9.526;2023-05-20T05:07:46;50.43;;;47.83;;
12038;SDS011;6080;48.818;9.526;2023-05-20T05:10:12;11.37;;;10.60;;
12038;SDS011;6080;48.818;9.526;2023-05-20T05:12:39;36.30;;;34.03;;
12038;SDS011;6080;48.818;9.526;2023-05-20T05:15:05;34.73;;;32.83;;
12038;SDS011;6080;48.818;9.526;2023-05-20T05:17:31;16.87;;;15.87;;
12038;SDS011;6080;48.818;9.526;2023-05-20T05:19:57;10.20;;;9.47;;
12038;SDS011;6080;48.818;9.526;2023-05-20T05:22:23;9.40;;;8.70;;
12038;SDS011;6080;48.818;9.526;2023-05-20T05:24:49;17.77;;;16.70;;
12038;SDS011;6080;48.818;9.526;2023-05-20T05:27:15;18.43;;;17.43;;
12038;SDS011;6080;48.818;9.526;2023-05-20T05:29:41;19.07;;;17.87;;
12038;SDS011;6080;48.818;9.526;2023-05-20T05:32:06;25.13;;;23.43;;
12038;SDS011;6080;48.818;9.526;2023-05-20T05:34:32;59.80;;;56.57;;
12038;SDS011;6080;48.818;9.526;2023-05-20T05:36:58;80.27;;;76.20;;
12038;SDS011;6080;48.818;9.526;2023-05-20T05:39:23;28.37;;;26.83;;
12038;SDS011;6080;48.818;9.526;2023-05-20T05:41:49;9.43;;;8.68;;
12038;SDS011;6080;48.818;9.526;2023-05-20T05:44:15;7.47;;;6.80;;
12038;SDS011;6080;48.818;9.526;2023-05-20T05:46:40;7.13;;;6.68;;
12038;SDS011;6080;48.818;9.526;2023-05-20T05:49:06;9.02;;;7.65;;
12038;SDS011;6080;48.818;9.526;2023-05-20T05:51:32;12.88;;;11.98;;
12038;SDS011;6080;48.818;9.526;2023-05-20T05:53:58;9.70;;;8.90;;
12038;SDS011;6080;48.818;9.526;2023-05-20T05:56:23;14.70;;;13.75;;
12038;SDS011;6080;48.818;9.526;2023-05-20T05:58:49;20.30;;;18.98;;
12038;SDS011;6080;48.818;9.526;2023-05-20T06:01:15;18.35;;;17.23;;
12038;SDS011;6080;48.818;9.526;2023-05-20T06:03:41;12.75;;;11.95;;
12038;SDS011;6080;48.818;9.526;2023-05-20T06:06:06;10.75;;;10.02;;
12038;SDS011;6080;48.818;9.526;2023-05-20T06:08:32;14.73;;;13.82;;
12038;SDS011;6080;48.818;9.526;2023-05-20T06:10:58;17.50;;;16.50;;
12038;SDS011;6080;48.818;9.526;2023-05-20T06:13:24;21.67;;;20.23;;
12038;SDS011;6080;48.818;9.526;2023-05-20T06:15:50;19.00;;;17.95;;
12038;SDS011;6080;48.818;9.526;2023-05-20T06:18:16;18.88;;;17.45;;
12038;SDS011;6080;48.818;9.526;2023-05-20T06:20:41;10.68;;;9.95;;
12038;SDS011;6080;48.818;9.526;2023-05-20T06:23:07;7.85;;;7.35;;
12038;SDS011;6080;48.818;9.526;2023-05-20T06:25:33;13.80;;;13.00;;
12038;SDS011;6080;48.818;9.526;2023-05-20T06:27:58;29.42;;;27.48;;
12038;SDS011;6080;48.818;9.526;2023-05-20T06:30:24;36.72;;;34.72;;
12038;SDS011;6080;48.818;9.526;2023-05-20T06:32:50;11.27;;;10.38;;
12038;SDS011;6080;48.818;9.526;2023-05-20T06:35:16;10.35;;;9.65;;
12038;SDS011;6080;48.818;9.526;2023-05-20T06:37:42;17.08;;;15.93;;
12038;SDS011;6080;48.818;9.526;2023-05-20T06:40:08;24.47;;;22.97;;
12038;SDS011;6080;48.818;9.526;2023-05-20T06:42:35;39.70;;;37.57;;
12038;SDS011;6080;48.818;9.526;2023-05-20T06:45:00;50.80;;;47.97;;
12038;SDS011;6080;48.818;9.526;2023-05-20T06:47:26;76.17;;;72.30;;
12038;SDS011;6080;48.818;9.526;2023-05-20T06:49:52;72.83;;;69.03;;
12038;SDS011;6080;48.818;9.526;2023-05-20T06:52:17;14.40;;;13.43;;
12038;SDS011;6080;48.818;9.526;2023-05-20T06:54:43;9.90;;;9.17;;
12038;SDS011;6080;48.818;9.526;2023-05-20T06:57:09;8.00;;;7.40;;
12038;SDS011;6080;48.818;9.526;2023-05-20T06:59:35;8.40;;;7.80;;
12038;SDS011;6080;48.818;9.526;2023-05-20T07:02:02;8.70;;;8.10;;
12038;SDS011;6080;48.818;9.526;2023-05-20T07:04:28;8.27;;;7.67;;
12038;SDS011;6080;48.818;9.526;2023-05-20T07:06:54;7.90;;;7.20;;
12038;SDS011;6080;48.818;9.526;2023-05-20T07:09:19;8.40;;;7.80;;
12038;SDS011;6080;48.818;9.526;2023-05-20T07:11:45;8.40;;;7.60;;
12038;SDS011;6080;48.818;9.526;2023-05-20T07:14:11;10.63;;;9.97;;
12038;SDS011;6080;48.818;9.526;2023-05-20T07:16:38;34.37;;;32.37;;
12038;SDS011;6080;48.818;9.526;2023-05-20T07:19:04;33.47;;;31.48;;
12038;SDS011;6080;48.818;9.526;2023-05-20T07:21:30;26.70;;;25.23;;
12038;SDS011;6080;48.818;9.526;2023-05-20T07:23:55;50.63;;;47.80;;
12038;SDS011;6080;48.818;9.526;2023-05-20T07:26:21;46.92;;;44.35;;
12038;SDS011;6080;48.818;9.526;2023-05-20T07:28:47;38.67;;;36.47;;
12038;SDS011;6080;48.818;9.526;2023-05-20T07:31:13;41.20;;;39.00;;
12038;SDS011;6080;48.818;9.526;2023-05-20T07:33:38;25.83;;;24.43;;
12038;SDS011;6080;48.818;9.526;2023-05-20T07:36:04;11.60;;;10.90;;
12038;SDS011;6080;48.818;9.526;2023-05-20T07:38:30;8.55;;;7.88;;
12038;SDS011;6080;48.818;9.526;2023-05-20T07:40:56;8.40;;;7.63;;
12038;SDS011;6080;48.818;9.526;2023-05-20T07:43:22;9.50;;;8.90;;
12038;SDS011;6080;48.818;9.526;2023-05-20T07:45:48;13.00;;;12.18;;
12038;SDS011;6080;48.818;9.526;2023-05-20T07:48:14;13.05;;;12.25;;
12038;SDS011;6080;48.818;9.526;2023-05-20T07:50:40;9.47;;;8.77;;
12038;SDS011;6080;48.818;9.526;2023-05-20T07:53:06;10.63;;;9.73;;
12038;SDS011;6080;48.818;9.526;2023-05-20T07:55:32;12.60;;;11.70;;
12038;SDS011;6080;48.818;9.526;2023-05-20T07:57:59;9.30;;;8.50;;
12038;SDS011;6080;48.818;9.526;2023-05-20T08:00:25;13.07;;;12.20;;
12038;SDS011;6080;48.818;9.526;2023-05-20T08:02:50;28.25;;;26.52;;
12038;SDS011;6080;48.818;9.526;2023-05-20T08:05:16;22.60;;;21.30;;
12038;SDS011;6080;48.818;9.526;2023-05-20T08:07:42;14.40;;;13.45;;
12038;SDS011;6080;48.818;9.526;2023-05-20T08:10:08;10.20;;;9.57;;
12038;SDS011;6080;48.818;9.526;2023-05-20T08:12:34;16.55;;;15.52;;
12038;SDS011;6080;48.818;9.526;2023-05-20T08:15:00;14.75;;;13.93;;
12038;SDS011;6080;48.818;9.526;2023-05-20T08:17:25;19.08;;;18.05;;
12038;SDS011;6080;48.818;9.526;2023-05-20T08:19:51;29.95;;;28.38;;
12038;SDS011;6080;48.818;9.526;2023-05-20T08:22:17;19.98;;;18.30;;
12038;SDS011;6080;48.818;9.526;2023-05-20T08:24:42;25.08;;;23.75;;
12038;SDS011;6080;48.818;9.526;2023-05-20T08:27:08;18.67;;;17.45;;
12038;SDS011;6080;48.818;9.526;2023-05-20T08:29:34;18.42;;;17.33;;
12038;SDS011;6080;48.818;9.526;2023-05-20T08:32:00;16.17;;;15.18;;
12038;SDS011;6080;48.818;9.526;2023-05-20T08:34:26;19.60;;;18.48;;
12038;SDS011;6080;48.818;9.526;2023-05-20T08:36:51;20.25;;;18.88;;
12038;SDS011;6080;48.818;9.526;2023-05-20T08:39:17;19.80;;;18.70;;
12038;SDS011;6080;48.818;9.526;2023-05-20T08:41:44;19.05;;;17.95;;
12038;SDS011;6080;48.818;9.526;2023-05-20T08:44:11;31.65;;;29.95;;
12038;SDS011;6080;48.818;9.526;2023-05-20T08:46:37;25.65;;;24.27;;
12038;SDS011;6080;48.818;9.526;2023-05-20T08:49:04;16.45;;;15.20;;
12038;SDS011;6080;48.818;9.526;2023-05-20T08:51:31;18.20;;;17.10;;
12038;SDS011;6080;48.818;9.526;2023-05-20T08:53:58;16.42;;;15.52;;
12038;SDS011;6080;48.818;9.526;2023-05-20T08:56:24;24.65;;;23.25;;
12038;SDS011;6080;48.818;9.526;2023-05-20T08:58:51;18.27;;;17.13;;
12038;SDS011;6080;48.818;9.526;2023-05-20T09:01:17;18.08;;;16.90;;
12038;SDS011;6080;48.818;9.526;2023-05-20T09:03:47;17.02;;;15.70;;
12038;SDS011;6080;48.818;9.526;2023-05-20T09:06:14;21.73;;;20.52;;
12038;SDS011;6080;48.818;9.526;2023-05-20T09:08:47;28.02;;;26.52;;
12038;SDS011;6080;48.818;9.526;2023-05-20T09:11:14;32.55;;;30.80;;
12038;SDS011;6080;48.818;9.526;2023-05-20T09:16:06;16.38;;;15.38;;
12038;SDS011;6080;48.818;9.526;2023-05-20T09:18:37;18.60;;;17.20;;
12038;SDS011;6080;48.818;9.526;2023-05-20T09:21:04;17.88;;;16.58;;
12038;SDS011;6080;48.818;9.526;2023-05-20T09:23:35;18.40;;;17.00;;
12038;SDS011;6080;48.818;9.526;2023-05-20T09:26:02;22.35;;;21.05;;
12038;SDS011;6080;48.818;9.526;2023-05-20T09:28:28;35.38;;;33.25;;
12038;SDS011;6080;48.818;9.526;2023-05-20T09:30:57;11.57;;;10.77;;
12038;SDS011;6080;48.818;9.526;2023-05-20T09:33:26;10.98;;;10.25;;
12038;SDS011;6080;48.818;9.526;2023-05-20T09:36:01;15.27;;;14.38;;
12038;SDS011;6080;48.818;9.526;2023-05-20T09:38:33;14.10;;;13.35;;
12038;SDS011;6080;48.818;9.526;2023-05-20T09:41:05;8.95;;;8.25;;
12038;SDS011;6080;48.818;9.526;2023-05-20T09:43:36;6.65;;;6.20;;
12038;SDS011;6080;48.818;9.526;2023-05-20T09:46:06;7.38;;;6.75;;
12038;SDS011;6080;48.818;9.526;2023-05-20T09:48:34;7.40;;;6.90;;
12038;SDS011;6080;48.818;9.526;2023-05-20T09:51:02;11.15;;;10.15;;
12038;SDS011;6080;48.818;9.526;2023-05-20T09:53:29;12.80;;;11.93;;
12038;SDS011;6080;48.818;9.526;2023-05-20T09:55:55;10.30;;;9.70;;
12038;SDS011;6080;48.818;9.526;2023-05-20T09:58:21;14.25;;;13.35;;
12038;SDS011;6080;48.818;9.526;2023-05-20T10:00:49;14.90;;;14.00;;
12038;SDS011;6080;48.818;9.526;2023-05-20T10:03:16;13.82;;;13.00;;
12038;SDS011;6080;48.818;9.526;2023-05-20T10:05:46;8.77;;;8.25;;
12038;SDS011;6080;48.818;9.526;2023-05-20T10:11:16;6.47;;;6.03;;
12038;SDS011;6080;48.818;9.526;2023-05-20T10:16:49;9.90;;;9.23;;
12038;SDS011;6080;48.818;9.526;2023-05-20T10:19:28;9.90;;;9.30;;
12038;SDS011;6080;48.818;9.526;2023-05-20T10:21:55;14.05;;;12.98;;
12038;SDS011;6080;48.818;9.526;2023-05-20T10:24:29;10.25;;;9.55;;
12038;SDS011;6080;48.818;9.526;2023-05-20T10:27:03;7.65;;;7.15;;
12038;SDS011;6080;48.818;9.526;2023-05-20T10:29:52;7.38;;;5.78;;
12038;SDS011;6080;48.818;9.526;2023-05-20T10:32:29;5.93;;;5.53;;
12038;SDS011;6080;48.818;9.526;2023-05-20T10:35:03;6.85;;;6.45;;
12038;SDS011;6080;48.818;9.526;2023-05-20T10:37:39;9.52;;;8.93;;
12038;SDS011;6080;48.818;9.526;2023-05-20T10:40:07;8.82;;;8.05;;
12038;SDS011;6080;48.818;9.526;2023-05-20T10:42:37;9.77;;;9.15;;
12038;SDS011;6080;48.818;9.526;2023-05-20T10:45:03;10.07;;;9.48;;
12038;SDS011;6080;48.818;9.526;2023-05-20T10:47:30;15.82;;;14.93;;
12038;SDS011;6080;48.818;9.526;2023-05-20T10:49:56;23.77;;;22.45;;
12038;SDS011;6080;48.818;9.526;2023-05-20T10:52:23;39.90;;;37.78;;
12038;SDS011;6080;48.818;9.526;2023-05-20T10:57:17;56.05;;;53.20;;
12038;SDS011;6080;48.818;9.526;2023-05-20T10:59:43;48.33;;;45.67;;
12038;SDS011;6080;48.818;9.526;2023-05-20T11:02:09;45.67;;;43.38;;
12038;SDS011;6080;48.818;9.526;2023-05-20T11:04:37;64.07;;;60.67;;
12038;SDS011;6080;48.818;9.526;2023-05-20T11:07:03;66.97;;;63.50;;
12038;SDS011;6080;48.818;9.526;2023-05-20T11:09:29;64.65;;;61.28;;
12038;SDS011;6080;48.818;9.526;2023-05-20T11:11:56;68.43;;;64.80;;
12038;SDS011;6080;48.818;9.526;2023-05-20T11:14:22;56.42;;;53.08;;
12038;SDS011;6080;48.818;9.526;2023-05-20T11:16:51;56.30;;;53.25;;
12038;SDS011;6080;48.818;9.526;2023-05-20T11:19:18;59.45;;;56.40;;
12038;SDS011;6080;48.818;9.526;2023-05-20T11:21:44;62.40;;;59.35;;
12038;SDS011;6080;48.818;9.526;2023-05-20T11:24:11;59.95;;;56.75;;
12038;SDS011;6080;48.818;9.526;2023-05-20T11:26:37;60.28;;;57.03;;
12038;SDS011;6080;48.818;9.526;2023-05-20T11:29:03;55.08;;;52.35;;
12038;SDS011;6080;48.818;9.526;2023-05-20T11:31:29;40.58;;;38.25;;
12038;SDS011;6080;48.818;9.526;2023-05-20T11:33:59;40.13;;;38.03;;
12038;SDS011;6080;48.818;9.526;2023-05-20T11:36:28;25.92;;;24.65;;
12038;SDS011;6080;48.818;9.526;2023-05-20T11:38:58;22.10;;;20.88;;
12038;SDS011;6080;48.818;9.526;2023-05-20T11:41:25;38.55;;;36.22;;
12038;SDS011;6080;48.818;9.526;2023-05-20T11:43:58;45.10;;;42.83;;
12038;SDS011;6080;48.818;9.526;2023-05-20T11:46:25;53.72;;;51.03;;
12038;SDS011;6080;48.818;9.526;2023-05-20T11:48:54;59.85;;;56.75;;
12038;SDS011;6080;48.818;9.526;2023-05-20T11:51:27;59.03;;;55.92;;
12038;SDS011;6080;48.818;9.526;2023-05-20T11:54:00;19.70;;;18.55;;
12038;SDS011;6080;48.818;9.526;2023-05-20T11:56:31;5.80;;;5.40;;
12038;SDS011;6080;48.818;9.526;2023-05-20T11:58:58;6.50;;;5.40;;
12038;SDS011;6080;48.818;9.526;2023-05-20T12:01:25;5.50;;;5.20;;
12038;SDS011;6080;48.818;9.526;2023-05-20T12:03:54;6.22;;;5.68;;
12038;SDS011;6080;48.818;9.526;2023-05-20T12:06:20;9.38;;;8.77;;
12038;SDS011;6080;48.818;9.526;2023-05-20T12:08:46;27.00;;;25.45;;
12038;SDS011;6080;48.818;9.526;2023-05-20T12:11:12;50.00;;;47.30;;
12038;SDS011;6080;48.818;9.526;2023-05-20T12:13:38;65.32;;;62.05;;
12038;SDS011;6080;48.818;9.526;2023-05-20T12:16:04;60.60;;;57.50;;
12038;SDS011;6080;48.818;9.526;2023-05-20T12:18:30;71.32;;;67.75;;
12038;SDS011;6080;48.818;9.526;2023-05-20T12:20:57;66.82;;;63.42;;
12038;SDS011;6080;48.818;9.526;2023-05-20T12:23:23;61.85;;;58.78;;
12038;SDS011;6080;48.818;9.526;2023-05-20T12:25:49;69.53;;;65.50;;
12038;SDS011;6080;48.818;9.526;2023-05-20T12:28:15;67.22;;;63.90;;
12038;SDS011;6080;48.818;9.526;2023-05-20T12:30:41;57.78;;;54.75;;
12038;SDS011;6080;48.818;9.526;2023-05-20T12:33:08;57.47;;;54.55;;
12038;SDS011;6080;48.818;9.526;2023-05-20T12:35:38;65.82;;;62.55;;
12038;SDS011;6080;48.818;9.526;2023-05-20T12:38:05;52.20;;;49.45;;
12038;SDS011;6080;48.818;9.526;2023-05-20T12:40:31;67.05;;;63.78;;
12038;SDS011;6080;48.818;9.526;2023-05-20T12:42:58;37.15;;;35.15;;
12038;SDS011;6080;48.818;9.526;2023-05-20T12:45:27;42.45;;;40.17;;
12038;SDS011;6080;48.818;9.526;2023-05-20T12:47:54;43.50;;;41.22;;
12038;SDS011;6080;48.818;9.526;2023-05-20T12:50:20;45.92;;;43.40;;
12038;SDS011;6080;48.818;9.526;2023-05-20T12:52:47;46.33;;;43.65;;
12038;SDS011;6080;48.818;9.526;2023-05-20T12:55:12;58.05;;;55.15;;
12038;SDS011;6080;48.818;9.526;2023-05-20T12:57:39;38.33;;;36.33;;
12038;SDS011;6080;48.818;9.526;2023-05-20T13:00:06;15.52;;;14.70;;
12038;SDS011;6080;48.818;9.526;2023-05-20T13:02:33;6.13;;;5.72;;
12038;SDS011;6080;48.818;9.526;2023-05-20T13:04:58;6.88;;;6.25;;
12038;SDS011;6080;48.818;9.526;2023-05-20T13:07:24;6.80;;;6.30;;
12038;SDS011;6080;48.818;9.526;2023-05-20T13:09:51;6.88;;;6.38;;
12038;SDS011;6080;48.818;9.526;2023-05-20T13:12:17;5.22;;;4.85;;
12038;SDS011;6080;48.818;9.526;2023-05-20T13:14:43;6.88;;;6.30;;
12038;SDS011;6080;48.818;9.526;2023-05-20T13:17:10;5.57;;;5.18;;
12038;SDS011;6080;48.818;9.526;2023-05-20T13:19:36;5.55;;;5.15;;
12038;SDS011;6080;48.818;9.526;2023-05-20T13:22:02;6.80;;;6.20;;
12038;SDS011;6080;48.818;9.526;2023-05-20T13:24:28;6.63;;;6.22;;
12038;SDS011;6080;48.818;9.526;2023-05-20T13:26:54;5.85;;;5.50;;
12038;SDS011;6080;48.818;9.526;2023-05-20T13:29:20;7.22;;;6.88;;
12038;SDS011;6080;48.818;9.526;2023-05-20T13:31:46;6.88;;;6.47;;
12038;SDS011;6080;48.818;9.526;2023-05-20T13:34:12;7.13;;;6.63;;
12038;SDS011;6080;48.818;9.526;2023-05-20T13:36:38;5.35;;;5.03;;
12038;SDS011;6080;48.818;9.526;2023-05-20T13:39:04;5.68;;;5.28;;
12038;SDS011;6080;48.818;9.526;2023-05-20T13:41:31;6.68;;;6.20;;
12038;SDS011;6080;48.818;9.526;2023-05-20T13:43:57;7.13;;;6.63;;
12038;SDS011;6080;48.818;9.526;2023-05-20T13:46:22;6.63;;;6.00;;
12038;SDS011;6080;48.818;9.526;2023-05-20T13:48:48;10.82;;;10.23;;
12038;SDS011;6080;48.818;9.526;2023-05-20T13:51:14;46.97;;;44.08;;
12038;SDS011;6080;48.818;9.526;2023-05-20T13:53:40;54.72;;;51.95;;
12038;SDS011;6080;48.818;9.526;2023-05-20T13:56:06;65.25;;;61.90;;
12038;SDS011;6080;48.818;9.526;2023-05-20T13:58:35;69.80;;;66.13;;
12038;SDS011;6080;48.818;9.526;2023-05-20T14:01:01;61.85;;;58.70;;
12038;SDS011;6080;48.818;9.526;2023-05-20T14:03:31;62.80;;;59.60;;
12038;SDS011;6080;48.818;9.526;2023-05-20T14:05:58;64.15;;;60.92;;
12038;SDS011;6080;48.818;9.526;2023-05-20T14:08:25;43.33;;;40.95;;
12038;SDS011;6080;48.818;9.526;2023-05-20T14:10:51;11.50;;;10.77;;
12038;SDS011;6080;48.818;9.526;2023-05-20T14:13:21;7.15;;;6.65;;
12038;SDS011;6080;48.818;9.526;2023-05-20T14:15:47;7.43;;;6.82;;
12038;SDS011;6080;48.818;9.526;2023-05-20T14:18:15;12.57;;;9.95;;
12038;SDS011;6080;48.818;9.526;2023-05-20T14:20:41;6.47;;;5.90;;
12038;SDS011;6080;48.818;9.526;2023-05-20T14:23:07;5.63;;;5.32;;
12038;SDS011;6080;48.818;9.526;2023-05-20T14:25:33;5.15;;;4.80;;
12038;SDS011;6080;48.818;9.526;2023-05-20T14:27:59;4.80;;;4.50;;
12038;SDS011;6080;48.818;9.526;2023-05-20T14:30:25;5.05;;;4.72;;
12038;SDS011;6080;48.818;9.526;2023-05-20T14:32:51;5.57;;;5.18;;
12038;SDS011;6080;48.818;9.526;2023-05-20T14:35:16;5.85;;;5.47;;
12038;SDS011;6080;48.818;9.526;2023-05-20T14:37:42;5.57;;;5.28;;
12038;SDS011;6080;48.818;9.526;2023-05-20T14:40:08;5.55;;;5.05;;
12038;SDS011;6080;48.818;9.526;2023-05-20T14:42:35;4.95;;;4.65;;
12038;SDS011;6080;48.818;9.526;2023-05-20T14:45:01;6.07;;;5.70;;
12038;SDS011;6080;48.818;9.526;2023-05-20T14:47:28;6.72;;;6.32;;
12038;SDS011;6080;48.818;9.526;2023-05-20T14:49:54;5.80;;;5.30;;
12038;SDS011;6080;48.818;9.526;2023-05-20T14:52:20;6.32;;;5.93;;
12038;SDS011;6080;48.818;9.526;2023-05-20T14:54:48;5.78;;;5.47;;
12038;SDS011;6080;48.818;9.526;2023-05-20T14:57:14;5.40;;;5.00;;
12038;SDS011;6080;48.818;9.526;2023-05-20T14:59:40;6.57;;;6.20;;
12038;SDS011;6080;48.818;9.526;2023-05-20T15:02:06;5.18;;;4.88;;
12038;SDS011;6080;48.818;9.526;2023-05-20T15:04:32;5.63;;;4.97;;
12038;SDS011;6080;48.818;9.526;2023-05-20T15:06:58;5.65;;;5.28;;
12038;SDS011;6080;48.818;9.526;2023-05-20T15:09:24;6.45;;;6.03;;
12038;SDS011;6080;48.818;9.526;2023-05-20T15:11:50;5.75;;;5.28;;
12038;SDS011;6080;48.818;9.526;2023-05-20T15:14:16;9.55;;;8.57;;
12038;SDS011;6080;48.818;9.526;2023-05-20T15:16:42;5.95;;;5.55;;
12038;SDS011;6080;48.818;9.526;2023-05-20T15:19:09;6.57;;;5.25;;
12038;SDS011;6080;48.818;9.526;2023-05-20T15:21:35;6.03;;;5.63;;
12038;SDS011;6080;48.818;9.526;2023-05-20T15:24:01;6.57;;;6.18;;
12038;SDS011;6080;48.818;9.526;2023-05-20T15:26:29;7.47;;;6.95;;
12038;SDS011;6080;48.818;9.526;2023-05-20T15:28:55;8.10;;;7.50;;
12038;SDS011;6080;48.818;9.526;2023-05-20T15:31:21;7.53;;;7.03;;
12038;SDS011;6080;48.818;9.526;2023-05-20T15:33:47;8.38;;;7.70;;
12038;SDS011;6080;48.818;9.526;2023-05-20T15:36:13;7.20;;;6.80;;
12038;SDS011;6080;48.818;9.526;2023-05-20T15:38:39;8.02;;;7.63;;
12038;SDS011;6080;48.818;9.526;2023-05-20T15:41:04;6.43;;;6.00;;
12038;SDS011;6080;48.818;9.526;2023-05-20T15:43:30;5.80;;;5.50;;
12038;SDS011;6080;48.818;9.526;2023-05-20T15:45:56;6.78;;;6.30;;
12038;SDS011;6080;48.818;9.526;2023-05-20T15:48:22;7.72;;;7.03;;
12038;SDS011;6080;48.818;9.526;2023-05-20T15:50:48;7.63;;;7.10;;
12038;SDS011;6080;48.818;9.526;2023-05-20T15:53:14;8.65;;;8.00;;
12038;SDS011;6080;48.818;9.526;2023-05-20T15:55:40;9.10;;;8.27;;
12038;SDS011;6080;48.818;9.526;2023-05-20T15:58:06;12.60;;;11.70;;
12038;SDS011;6080;48.818;9.526;2023-05-20T16:00:31;10.68;;;10.07;;
12038;SDS011;6080;48.818;9.526;2023-05-20T16:02:57;18.02;;;17.00;;
12038;SDS011;6080;48.818;9.526;2023-05-20T16:05:23;24.80;;;23.27;;
12038;SDS011;6080;48.818;9.526;2023-05-20T16:07:50;20.73;;;19.67;;
12038;SDS011;6080;48.818;9.526;2023-05-20T16:10:17;8.00;;;7.60;;
12038;SDS011;6080;48.818;9.526;2023-05-20T16:12:43;7.70;;;7.00;;
12038;SDS011;6080;48.818;9.526;2023-05-20T16:15:09;6.78;;;6.28;;
12038;SDS011;6080;48.818;9.526;2023-05-20T16:17:35;8.52;;;6.28;;
12038;SDS011;6080;48.818;9.526;2023-05-20T16:20:02;6.47;;;6.13;;
12038;SDS011;6080;48.818;9.526;2023-05-20T16:22:32;11.25;;;6.45;;
12038;SDS011;6080;48.818;9.526;2023-05-20T16:24:58;6.03;;;5.63;;
12038;SDS011;6080;48.818;9.526;2023-05-20T16:27:24;5.43;;;4.95;;
12038;SDS011;6080;48.818;9.526;2023-05-20T16:29:50;5.07;;;4.68;;
12038;SDS011;6080;48.818;9.526;2023-05-20T16:32:15;6.18;;;4.55;;
12038;SDS011;6080;48.818;9.526;2023-05-20T16:34:41;6.10;;;5.70;;
12038;SDS011;6080;48.818;9.526;2023-05-20T16:37:07;5.45;;;5.10;;
12038;SDS011;6080;48.818;9.526;2023-05-20T16:39:34;7.72;;;6.45;;
12038;SDS011;6080;48.818;9.526;2023-05-20T16:42:00;8.25;;;7.03;;
12038;SDS011;6080;48.818;9.526;2023-05-20T16:44:26;7.40;;;6.90;;
12038;SDS011;6080;48.818;9.526;2023-05-20T16:46:52;8.80;;;8.20;;
12038;SDS011;6080;48.818;9.526;2023-05-20T16:49:18;8.60;;;8.00;;
12038;SDS011;6080;48.818;9.526;2023-05-20T16:51:43;8.10;;;7.60;;
12038;SDS011;6080;48.818;9.526;2023-05-20T16:54:10;13.18;;;12.35;;
12038;SDS011;6080;48.818;9.526;2023-05-20T16:56:36;23.17;;;21.73;;
12038;SDS011;6080;48.818;9.526;2023-05-20T16:59:02;29.70;;;28.08;;
12038;SDS011;6080;48.818;9.526;2023-05-20T17:01:28;24.40;;;22.95;;
12038;SDS011;6080;48.818;9.526;2023-05-20T17:03:53;12.90;;;12.23;;
12038;SDS011;6080;48.818;9.526;2023-05-20T17:06:19;24.63;;;23.23;;
12038;SDS011;6080;48.818;9.526;2023-05-20T17:08:45;25.48;;;23.80;;
12038;SDS011;6080;48.818;9.526;2023-05-20T17:11:11;34.15;;;32.33;;
12038;SDS011;6080;48.818;9.526;2023-05-20T17:13:36;35.55;;;33.75;;
12038;SDS011;6080;48.818;9.526;2023-05-20T17:16:02;32.63;;;30.73;;
12038;SDS011;6080;48.818;9.526;2023-05-20T17:18:28;32.47;;;30.70;;
12038;SDS011;6080;48.818;9.526;2023-05-20T17:20:54;40.92;;;38.83;;
12038;SDS011;6080;48.818;9.526;2023-05-20T17:23:19;47.17;;;44.80;;
12038;SDS011;6080;48.818;9.526;2023-05-20T17:25:45;56.47;;;53.53;;
12038;SDS011;6080;48.818;9.526;2023-05-20T17:28:11;62.25;;;59.00;;
12038;SDS011;6080;48.818;9.526;2023-05-20T17:30:37;60.35;;;57.28;;
12038;SDS011;6080;48.818;9.526;2023-05-20T17:33:02;67.65;;;64.05;;
12038;SDS011;6080;48.818;9.526;2023-05-20T17:35:28;53.40;;;50.63;;
12038;SDS011;6080;48.818;9.526;2023-05-20T17:37:55;49.72;;;47.15;;
12038;SDS011;6080;48.818;9.526;2023-05-20T17:40:21;45.05;;;42.65;;
12038;SDS011;6080;48.818;9.526;2023-05-20T17:42:47;38.08;;;35.97;;
12038;SDS011;6080;48.818;9.526;2023-05-20T17:45:13;32.03;;;30.38;;
12038;SDS011;6080;48.818;9.526;2023-05-20T17:47:39;32.05;;;30.25;;
12038;SDS011;6080;48.818;9.526;2023-05-20T17:50:05;27.92;;;26.40;;
12038;SDS011;6080;48.818;9.526;2023-05-20T17:52:31;23.52;;;22.20;;